Time;durP1;ratioP1;P1;durP2;ratioP2;P2;SDS_P1;SDS_P2;PMS_P1;PMS_P2;Temp;Humidity;BMP_temperature;BMP_pressure;BME280_temperature;BME280_humidity;BME280_pressure;Samples;Min_cycle;Max_cycle;Signal;HPM_P1;HPM_P2
2022/10/21 00:01:38;;;;;;;27.85;19.35;;;15.20;79.30;;;;;;5051447;28;20021;-16
2022/10/21 00:04:04;;;;;;;29.55;19.95;;;15.20;79.30;;;;;;5052767;28;20400;-15
2022/10/21 00:06:30;;;;;;;24.10;16.95;;;15.20;79.50;;;;;;5055698;28;20057;-15
2022/10/21 00:08:56;;;;;;;26.70;18.60;;;15.20;79.30;;;;;;5056455;28;20037;-16
2022/10/21 00:11:22;;;;;;;25.98;17.52;;;15.20;79.30;;;;;;5056341;28;20043;-14
2022/10/21 00:13:48;;;;;;;24.27;16.58;;;15.30;79.30;;;;;;5056308;28;20028;-15
2022/10/21 00:16:17;;;;;;;28.55;20.40;;;15.30;79.20;;;;;;5056416;28;20048;-14
2022/10/21 00:18:47;;;;;;;29.52;19.77;;;15.30;79.30;;;;;;5056119;28;20048;-16
2022/10/21 00:21:16;;;;;;;32.85;21.35;;;15.30;79.20;;;;;;5056151;28;20067;-16
2022/10/21 00:23:42;;;;;;;30.52;20.85;;;15.30;79.50;;;;;;5056268;28;20025;-15
2022/10/21 00:26:09;;;;;;;28.75;19.40;;;15.30;79.60;;;;;;5055973;28;20504;-14
2022/10/21 00:28:35;;;;;;;33.55;20.75;;;15.30;79.50;;;;;;5056514;28;20017;-15
2022/10/21 00:31:04;;;;;;;30.60;20.67;;;15.30;79.60;;;;;;5055677;28;20056;-15
2022/10/21 00:33:30;;;;;;;31.45;20.67;;;15.30;79.60;;;;;;5056160;28;20029;-15
2022/10/21 00:36:00;;;;;;;31.30;20.23;;;15.30;79.50;;;;;;5055531;28;20052;-15
2022/10/21 00:38:26;;;;;;;39.78;24.98;;;15.40;79.50;;;;;;5056037;28;20033;-14
2022/10/21 00:40:52;;;;;;;29.75;20.55;;;15.40;79.60;;;;;;5055833;28;20487;-14
2022/10/21 00:43:18;;;;;;;32.03;20.77;;;15.40;79.70;;;;;;5055680;28;20399;-15
2022/10/21 00:45:45;;;;;;;30.10;18.90;;;15.40;79.90;;;;;;5055657;28;20029;-15
2022/10/21 00:48:18;;;;;;;27.77;17.95;;;15.40;79.70;;;;;;5055863;28;20102;-15
2022/10/21 00:50:57;;;;;;;25.92;18.52;;;15.40;79.70;;;;;;5055601;28;20021;-14
2022/10/21 00:53:24;;;;;;;27.27;18.42;;;15.40;79.60;;;;;;5055280;28;20035;-16
2022/10/21 00:55:58;;;;;;;30.30;19.65;;;15.50;79.60;;;;;;5055523;28;20104;-16
2022/10/21 00:58:25;;;;;;;;;;;15.50;79.60;;;;;;5056138;28;20029;-14
2022/10/21 01:00:56;;;;;;;28.55;18.58;;;15.50;79.90;;;;;;5055203;28;19905;-15
2022/10/21 01:03:27;;;;;;;42.67;28.23;;;15.50;79.40;;;;;;5055347;28;20051;-14
2022/10/21 01:05:56;;;;;;;34.78;21.95;;;15.40;79.50;;;;;;5055256;28;20032;-15
2022/10/21 01:08:23;;;;;;;32.15;21.60;;;15.40;79.70;;;;;;5053864;28;20448;-15
2022/10/21 01:10:49;;;;;;;38.25;24.42;;;15.40;79.60;;;;;;5055537;28;20028;-14
2022/10/21 01:13:49;;;;;;;37.90;25.00;;;15.40;79.80;;;;;;5055426;28;20094;-16
2022/10/21 01:16:49;;;;;;;36.45;23.23;;;15.40;79.80;;;;;;5055034;28;20032;-15
2022/10/21 01:19:41;;;;;;;37.90;25.58;;;15.40;79.90;;;;;;5055316;28;20056;-14
2022/10/21 01:22:19;;;;;;;30.27;20.58;;;15.30;80.00;;;;;;5054921;28;20025;-14
2022/10/21 01:25:19;;;;;;;50.00;30.80;;;15.30;79.90;;;;;;5054854;28;20029;-15
2022/10/21 01:27:53;;;;;;;44.95;25.58;;;15.30;80.00;;;;;;5055160;28;20393;-15
2022/10/21 01:30:41;;;;;;;33.90;22.65;;;15.20;80.10;;;;;;5055139;28;20029;-15
2022/10/21 01:33:27;;;;;;;49.58;30.85;;;15.20;80.30;;;;;;5054672;28;20040;-15
2022/10/21 01:36:11;;;;;;;47.70;30.65;;;15.20;80.40;;;;;;5053267;28;20076;-15
2022/10/21 01:38:55;;;;;;;;;;;15.20;80.40;;;;;;5055016;28;20405;-16
2022/10/21 01:41:38;;;;;;;31.92;20.15;;;15.20;80.90;;;;;;5054988;28;19905;-17
2022/10/21 01:44:38;;;;;;;31.02;20.00;;;15.10;80.50;;;;;;5054622;28;20395;-13
2022/10/21 01:47:36;;;;;;;30.15;20.40;;;15.20;80.40;;;;;;5054961;28;20534;-15
2022/10/21 01:50:11;;;;;;;25.35;17.05;;;15.20;80.50;;;;;;5055044;28;20036;-15
2022/10/21 01:52:40;;;;;;;31.02;21.23;;;15.20;80.40;;;;;;5054589;28;20468;-15
2022/10/21 01:55:11;;;;;;;25.92;17.65;;;15.20;80.50;;;;;;5054275;28;20385;-14
2022/10/21 01:57:42;;;;;;;36.85;25.27;;;15.10;80.30;;;;;;5054576;28;20057;-15
2022/10/21 02:00:09;;;;;;;31.25;21.33;;;15.20;80.30;;;;;;5054576;28;20021;-15
2022/10/21 02:02:43;;;;;;;38.45;23.63;;;15.10;80.20;;;;;;5054504;28;20114;-15
2022/10/21 02:05:24;;;;;;;29.77;20.17;;;15.10;80.40;;;;;;5054367;28;20020;-16
2022/10/21 02:07:50;;;;;;;31.23;20.48;;;15.10;80.40;;;;;;5054042;28;20040;-16
2022/10/21 02:10:17;;;;;;;34.65;22.05;;;15.10;80.50;;;;;;5054066;28;20025;-15
2022/10/21 02:12:46;;;;;;;29.70;20.17;;;15.10;80.50;;;;;;5054106;28;20036;-14
2022/10/21 02:15:14;;;;;;;32.88;22.17;;;15.10;80.40;;;;;;5054418;28;20021;-15
2022/10/21 02:17:48;;;;;;;36.60;23.10;;;15.10;80.40;;;;;;5053810;28;20484;-17
2022/10/21 02:20:15;;;;;;;;;;;15.10;80.50;;;;;;5054572;28;20112;-15
2022/10/21 02:22:43;;;;;;;28.58;19.90;;;15.10;80.90;;;;;;5053985;28;19967;-15
2022/10/21 02:25:23;;;;;;;42.72;27.67;;;15.10;80.60;;;;;;5053818;28;20502;-15
2022/10/21 02:27:50;;;;;;;42.45;27.42;;;15.10;80.40;;;;;;5053099;28;20530;-15
2022/10/21 02:30:16;;;;;;;46.83;30.13;;;15.10;80.50;;;;;;5053981;28;20074;-15
2022/10/21 02:32:59;;;;;;;38.53;22.00;;;15.00;80.50;;;;;;5053624;28;20036;-15
2022/10/21 02:36:14;;;;;;;36.25;23.50;;;14.90;80.50;;;;;;5052184;28;20412;-14
2022/10/21 02:38:46;;;;;;;34.85;23.67;;;14.90;80.70;;;;;;5031452;28;20083;-15
2022/10/21 02:41:16;;;;;;;37.47;22.70;;;14.90;80.70;;;;;;5031578;28;20022;-15
2022/10/21 02:44:03;;;;;;;32.08;21.75;;;14.90;80.70;;;;;;5031776;28;20119;-15
2022/10/21 02:46:39;;;;;;;31.50;21.52;;;14.90;80.80;;;;;;5031494;28;20160;-17
2022/10/21 02:49:05;;;;;;;30.70;21.45;;;14.80;80.90;;;;;;5031265;28;20038;-16
2022/10/21 02:51:31;;;;;;;32.38;20.63;;;14.80;80.80;;;;;;5031807;28;20029;-17
2022/10/21 02:53:57;;;;;;;30.13;20.65;;;14.80;80.80;;;;;;5031241;28;20038;-16
2022/10/21 02:56:23;;;;;;;30.55;21.67;;;14.70;80.80;;;;;;5014621;28;20073;-15
2022/10/21 02:58:49;;;;;;;30.35;20.90;;;14.70;80.90;;;;;;5014548;28;20075;-17
2022/10/21 03:01:15;;;;;;;31.55;20.92;;;14.70;81.00;;;;;;5031559;28;20029;-15
2022/10/21 03:03:41;;;;;;;33.75;22.20;;;14.60;80.80;;;;;;5031217;28;20029;-15
2022/10/21 03:06:07;;;;;;;30.10;20.02;;;14.50;80.80;;;;;;5014666;28;20040;-14
2022/10/21 03:08:33;;;;;;;24.98;17.05;;;14.40;80.70;;;;;;5031122;28;20045;-16
2022/10/21 03:10:59;;;;;;;27.27;19.20;;;14.40;80.70;;;;;;4998049;28;20022;-14
2022/10/21 03:13:25;;;;;;;34.35;21.50;;;14.40;80.80;;;;;;5031052;28;20508;-14
2022/10/21 03:15:51;;;;;;;35.00;24.00;;;14.40;80.90;;;;;;5049483;28;20062;-15
2022/10/21 03:18:18;;;;;;;27.95;19.65;;;14.30;80.90;;;;;;5052913;28;20040;-15
2022/10/21 03:20:47;;;;;;;31.05;19.95;;;14.20;80.90;;;;;;5052957;28;20032;-15
2022/10/21 03:23:13;;;;;;;28.95;18.08;;;14.20;81.00;;;;;;5053172;28;20021;-17
2022/10/21 03:25:39;;;;;;;27.20;18.85;;;14.10;81.00;;;;;;5053533;28;20530;-16
2022/10/21 03:28:05;;;;;;;41.38;27.00;;;14.10;81.10;;;;;;5052822;28;20029;-15
2022/10/21 03:30:31;;;;;;;30.85;20.55;;;14.10;81.20;;;;;;5053206;28;20031;-14
2022/10/21 03:32:57;;;;;;;30.10;20.17;;;14.10;81.10;;;;;;5052671;28;20501;-16
2022/10/21 03:35:23;;;;;;;24.92;16.58;;;14.10;81.00;;;;;;5052664;28;20059;-15
2022/10/21 03:37:49;;;;;;;28.50;20.52;;;14.00;81.10;;;;;;5053114;28;20029;-16
2022/10/21 03:40:15;;;;;;;26.40;18.40;;;14.00;81.20;;;;;;5055348;28;20377;-15
2022/10/21 03:42:41;;;;;;;28.55;19.92;;;14.00;81.20;;;;;;5056826;28;20021;-14
2022/10/21 03:45:08;;;;;;;31.77;19.98;;;13.90;81.20;;;;;;5056573;28;20076;-14
2022/10/21 03:47:34;;;;;;;25.23;17.60;;;13.90;81.20;;;;;;5056757;28;20029;-15
2022/10/21 03:50:00;;;;;;;32.28;20.50;;;13.90;81.20;;;;;;5056668;28;20039;-15
2022/10/21 03:52:26;;;;;;;27.85;18.40;;;13.90;81.20;;;;;;5056899;28;20021;-15
2022/10/21 03:54:52;;;;;;;27.85;19.15;;;13.90;81.10;;;;;;5056685;28;20423;-15
2022/10/21 03:57:18;;;;;;;36.88;24.08;;;13.90;81.10;;;;;;5056842;28;20542;-15
2022/10/21 03:59:43;;;;;;;32.42;21.80;;;13.90;81.40;;;;;;5056495;28;20392;-14
2022/10/21 04:02:09;;;;;;;32.15;21.08;;;13.90;81.60;;;;;;5056775;28;20017;-16
2022/10/21 04:04:36;;;;;;;29.88;20.58;;;13.90;81.30;;;;;;5056681;28;20029;-14
2022/10/21 04:07:02;;;;;;;30.38;20.38;;;13.80;81.30;;;;;;5056198;28;20500;-16
2022/10/21 04:09:28;;;;;;;27.80;19.30;;;13.80;81.40;;;;;;5056682;28;20047;-15
2022/10/21 04:11:54;;;;;;;31.77;21.40;;;13.80;81.40;;;;;;5055449;28;20047;-16
2022/10/21 04:14:20;;;;;;;39.67;25.20;;;13.80;81.60;;;;;;5056497;28;20507;-16
2022/10/21 04:16:46;;;;;;;39.00;25.33;;;13.70;81.70;;;;;;5056124;28;20028;-16
2022/10/21 04:19:17;;;;;;;30.02;19.10;;;13.70;81.60;;;;;;5056041;28;20039;-15
2022/10/21 04:21:43;;;;;;;36.75;23.58;;;13.70;81.50;;;;;;5056478;28;20026;-15
2022/10/21 04:24:10;;;;;;;33.53;21.08;;;13.60;81.60;;;;;;5056049;28;20036;-14
2022/10/21 04:26:36;;;;;;;28.50;18.15;;;13.70;81.60;;;;;;5056572;28;20025;-15
2022/10/21 04:29:03;;;;;;;30.48;20.73;;;13.60;81.60;;;;;;5056093;28;20029;-16
2022/10/21 04:31:29;;;;;;;39.33;25.50;;;13.60;81.60;;;;;;5056773;28;20063;-15
2022/10/21 04:33:55;;;;;;;27.20;19.10;;;13.70;81.60;;;;;;5056177;28;20040;-15
2022/10/21 04:36:21;;;;;;;33.38;21.38;;;13.60;81.70;;;;;;5055648;28;20042;-16
2022/10/21 04:38:47;;;;;;;29.27;19.20;;;13.70;81.80;;;;;;5055498;28;20068;-15
2022/10/21 04:41:13;;;;;;;26.98;18.90;;;13.60;81.70;;;;;;5054503;28;20053;-15
2022/10/21 04:43:39;;;;;;;28.05;19.52;;;13.60;81.60;;;;;;5055719;28;20037;-16
2022/10/21 04:46:10;;;;;;;26.90;18.58;;;13.60;81.60;;;;;;5055684;28;20115;-16
2022/10/21 04:48:36;;;;;;;27.80;18.85;;;13.70;81.70;;;;;;5055900;28;20116;-16
2022/10/21 04:51:02;;;;;;;23.25;16.98;;;13.70;81.40;;;;;;5054596;28;20033;-16
2022/10/21 04:53:28;;;;;;;24.15;17.08;;;13.60;81.40;;;;;;5056047;28;20021;-16
2022/10/21 04:55:54;;;;;;;21.83;15.60;;;13.60;81.40;;;;;;5055691;28;20412;-15
2022/10/21 04:58:21;;;;;;;25.55;17.95;;;13.60;81.50;;;;;;5055360;28;20033;-16
2022/10/21 05:00:47;;;;;;;30.20;20.35;;;13.60;81.60;;;;;;5055544;28;20029;-16
2022/10/21 05:03:13;;;;;;;34.03;21.98;;;13.60;81.70;;;;;;5055352;28;20021;-16
2022/10/21 05:05:39;;;;;;;29.58;21.20;;;13.60;81.70;;;;;;5055248;28;20082;-16
2022/10/21 05:08:05;;;;;;;32.53;20.67;;;13.60;81.70;;;;;;5055479;28;20021;-17
2022/10/21 05:10:31;;;;;;;33.17;22.67;;;13.60;81.60;;;;;;5055416;28;20033;-16
2022/10/21 05:12:57;;;;;;;32.13;21.85;;;13.50;81.60;;;;;;5055032;28;20033;-17
2022/10/21 05:15:24;;;;;;;28.55;19.55;;;13.60;81.70;;;;;;5055107;28;20033;-15
2022/10/21 05:17:52;;;;;;;35.97;23.02;;;13.60;81.70;;;;;;5055311;28;20031;-14
2022/10/21 05:20:18;;;;;;;32.83;22.40;;;13.60;81.80;;;;;;5055247;28;20036;-15
2022/10/21 05:22:45;;;;;;;36.10;23.20;;;13.60;81.90;;;;;;5054942;28;20029;-14
2022/10/21 05:25:11;;;;;;;33.38;21.70;;;13.60;81.90;;;;;;5054743;28;20377;-16
2022/10/21 05:27:36;;;;;;;34.10;21.98;;;13.50;81.80;;;;;;5054906;28;20017;-17
2022/10/21 05:30:03;;;;;;;32.22;21.27;;;13.50;81.90;;;;;;5055179;28;20024;-15
2022/10/21 05:32:30;;;;;;;34.45;21.10;;;13.40;82.10;;;;;;5055052;28;20112;-15
2022/10/21 05:34:56;;;;;;;32.70;20.75;;;13.40;82.00;;;;;;5054576;28;20053;-15
2022/10/21 05:37:22;;;;;;;30.90;20.70;;;13.50;82.20;;;;;;5054531;28;20036;-16
2022/10/21 05:39:48;;;;;;;33.35;21.58;;;13.40;82.20;;;;;;5054950;28;20041;-17
2022/10/21 05:42:14;;;;;;;33.95;21.48;;;13.40;82.30;;;;;;5054921;28;20419;-16
2022/10/21 05:44:40;;;;;;;33.50;22.00;;;13.50;82.20;;;;;;5055340;28;20029;-15
2022/10/21 05:47:06;;;;;;;29.95;18.23;;;13.50;82.20;;;;;;5054653;28;20025;-15
2022/10/21 05:49:32;;;;;;;32.80;22.08;;;13.50;82.10;;;;;;5054777;28;20377;-16
2022/10/21 05:51:58;;;;;;;28.17;18.17;;;13.50;82.30;;;;;;5054620;28;20064;-15
2022/10/21 05:54:24;;;;;;;29.75;19.58;;;13.60;82.20;;;;;;5054308;28;20104;-15
2022/10/21 05:56:50;;;;;;;27.65;19.98;;;13.60;82.00;;;;;;5054337;28;20033;-15
2022/10/21 05:59:17;;;;;;;31.33;19.80;;;13.60;81.90;;;;;;5054903;28;20021;-15
2022/10/21 06:01:43;;;;;;;32.63;21.50;;;13.60;82.00;;;;;;5055051;28;20413;-14
2022/10/21 06:04:08;;;;;;;31.02;18.38;;;13.70;82.10;;;;;;5053486;28;20025;-15
2022/10/21 06:06:34;;;;;;;32.28;21.23;;;13.70;82.10;;;;;;5054436;28;20020;-15
2022/10/21 06:09:00;;;;;;;34.75;21.65;;;13.80;82.20;;;;;;5053777;28;20468;-16
2022/10/21 06:11:27;;;;;;;34.08;22.88;;;13.80;82.50;;;;;;5054047;28;20017;-16
2022/10/21 06:13:52;;;;;;;34.88;22.08;;;13.80;82.50;;;;;;5053924;28;20481;-16
2022/10/21 06:16:18;;;;;;;33.50;21.98;;;13.80;82.20;;;;;;5053894;28;20039;-16
2022/10/21 06:18:44;;;;;;;32.67;20.15;;;13.90;82.10;;;;;;5054134;28;20044;-15
2022/10/21 06:21:10;;;;;;;35.35;22.80;;;13.90;82.00;;;;;;5053738;28;20036;-16
2022/10/21 06:23:36;;;;;;;35.63;22.02;;;13.90;82.00;;;;;;5054370;28;20443;-15
2022/10/21 06:26:12;;;;;;;38.70;24.05;;;14.00;82.10;;;;;;5054085;28;20051;-15
2022/10/21 06:28:41;;;;;;;32.75;21.15;;;14.00;82.20;;;;;;5053869;28;20049;-16
2022/10/21 06:31:11;;;;;;;33.15;22.00;;;14.10;82.00;;;;;;5053471;28;20029;-16
2022/10/21 06:33:37;;;;;;;33.20;20.98;;;14.10;82.10;;;;;;5053666;28;20116;-15
2022/10/21 06:36:03;;;;;;;36.50;21.75;;;14.20;81.90;;;;;;5053193;28;20060;-15
2022/10/21 06:38:31;;;;;;;33.53;21.63;;;14.30;82.00;;;;;;5053749;28;20029;-15
2022/10/21 06:41:01;;;;;;;41.72;26.63;;;14.40;82.00;;;;;;5053469;28;20052;-15
2022/10/21 06:43:28;;;;;;;36.72;24.27;;;14.40;82.00;;;;;;5053455;28;20400;-15
2022/10/21 06:46:09;;;;;;;35.45;22.05;;;14.50;82.20;;;;;;5053447;28;20044;-17
2022/10/21 06:48:35;;;;;;;34.88;22.35;;;14.60;81.40;;;;;;5053889;28;20029;-16
2022/10/21 06:51:05;;;;;;;35.63;22.13;;;14.70;81.70;;;;;;5053072;28;20035;-15
2022/10/21 06:53:31;;;;;;;36.58;22.40;;;14.80;81.50;;;;;;5053190;28;20056;-16
2022/10/21 06:56:09;;;;;;;35.05;21.83;;;14.80;81.50;;;;;;5053271;28;20055;-15
2022/10/21 06:58:36;;;;;;;40.30;24.85;;;14.90;81.30;;;;;;5053427;28;20063;-16
2022/10/21 07:01:10;;;;;;;40.03;24.50;;;15.00;81.50;;;;;;5053037;28;20032;-15
2022/10/21 07:03:35;;;;;;;;;;;15.10;81.90;;;;;;5053672;28;20540;-15
2022/10/21 07:06:01;;;;;;;36.13;20.48;;;15.20;82.90;;;;;;5053305;28;19948;-17
2022/10/21 07:08:28;;;;;;;40.85;23.58;;;15.40;82.00;;;;;;5052964;28;20078;-15
2022/10/21 07:10:55;;;;;;;34.63;22.13;;;15.40;81.70;;;;;;5052919;28;20017;-15
2022/10/21 07:13:22;;;;;;;46.88;28.67;;;15.60;81.20;;;;;;5053482;28;20129;-17
2022/10/21 07:15:57;;;;;;;36.75;24.30;;;15.70;81.00;;;;;;5053020;28;20504;-17
2022/10/21 07:18:24;;;;;;;38.10;23.88;;;15.80;80.60;;;;;;5053257;28;20032;-16
2022/10/21 07:20:50;;;;;;;47.40;29.35;;;15.90;80.80;;;;;;5051599;28;20064;-15
2022/10/21 07:23:16;;;;;;;45.80;28.85;;;16.00;82.00;;;;;;5052896;28;20056;-15
2022/10/21 07:25:42;;;;;;;46.33;28.75;;;16.10;81.60;;;;;;5052936;28;20514;-15
2022/10/21 07:28:09;;;;;;;44.60;29.20;;;16.10;81.90;;;;;;5053318;28;20025;-16
2022/10/21 07:30:42;;;;;;;39.17;25.52;;;16.10;82.00;;;;;;5052878;28;20063;-16
2022/10/21 07:33:09;;;;;;;38.42;25.30;;;16.10;81.80;;;;;;5053347;28;20473;-15
2022/10/21 07:35:35;;;;;;;35.22;21.95;;;16.20;81.20;;;;;;5052835;28;20084;-14
2022/10/21 07:38:01;;;;;;;34.25;21.48;;;16.20;81.00;;;;;;5052677;28;20052;-15
2022/10/21 07:40:28;;;;;;;31.08;20.55;;;16.20;80.20;;;;;;5052819;28;20550;-16
2022/10/21 07:42:55;;;;;;;30.45;20.48;;;16.30;79.40;;;;;;5051389;28;20029;-16
2022/10/21 07:45:21;;;;;;;33.35;20.25;;;16.30;79.20;;;;;;5053035;28;20071;-15
2022/10/21 07:47:48;;;;;;;27.30;18.35;;;16.40;79.00;;;;;;5052780;28;20017;-14
2022/10/21 07:50:14;;;;;;;30.90;18.17;;;16.40;78.20;;;;;;5052737;28;20029;-14
2022/10/21 07:52:44;;;;;;;29.55;18.02;;;16.50;77.90;;;;;;5052612;28;20029;-14
2022/10/21 07:55:12;;;;;;;28.88;18.33;;;16.50;78.10;;;;;;5052812;28;20033;-15
2022/10/21 07:57:39;;;;;;;27.55;18.40;;;16.50;78.10;;;;;;5052778;28;20526;-17
2022/10/21 08:00:07;;;;;;;28.95;19.23;;;16.50;77.00;;;;;;5052627;28;20500;-15
2022/10/21 08:02:33;;;;;;;29.05;18.98;;;16.50;77.30;;;;;;5052629;28;20075;-15
2022/10/21 08:04:59;;;;;;;29.60;16.67;;;16.60;77.00;;;;;;5051101;28;20021;-15
2022/10/21 08:07:25;;;;;;;28.77;16.70;;;16.70;77.30;;;;;;5052546;28;20030;-14
2022/10/21 08:09:51;;;;;;;29.30;17.52;;;16.90;76.70;;;;;;5052548;28;20025;-15
2022/10/21 08:12:17;;;;;;;28.20;17.00;;;17.00;76.40;;;;;;5051319;28;20121;-15
2022/10/21 08:14:43;;;;;;;26.52;17.38;;;17.20;76.80;;;;;;5052472;28;20051;-14
2022/10/21 08:17:09;;;;;;;27.98;17.45;;;17.40;76.10;;;;;;5052472;28;20040;-14
2022/10/21 08:19:35;;;;;;;25.05;16.13;;;17.50;75.70;;;;;;5052763;28;20029;-14
2022/10/21 08:22:01;;;;;;;29.95;17.90;;;17.70;74.60;;;;;;5051176;28;20385;-15
2022/10/21 08:24:28;;;;;;;31.52;17.83;;;17.80;74.00;;;;;;5052629;28;20314;-15
2022/10/21 08:26:54;;;;;;;29.55;17.20;;;17.80;74.10;;;;;;5053907;28;20028;-16
2022/10/21 08:29:20;;;;;;;27.55;17.55;;;17.80;73.20;;;;;;5056013;28;20116;-16
2022/10/21 08:31:46;;;;;;;24.80;16.60;;;17.90;73.10;;;;;;5055966;28;20060;-15
2022/10/21 08:34:12;;;;;;;25.00;16.67;;;17.90;73.10;;;;;;5055922;28;20057;-14
2022/10/21 08:36:39;;;;;;;26.73;17.20;;;18.00;73.10;;;;;;5055818;28;20561;-15
2022/10/21 08:39:06;;;;;;;24.65;15.60;;;18.10;73.40;;;;;;5055628;28;20029;-15
2022/10/21 08:41:54;;;;;;;28.73;18.23;;;18.30;73.50;;;;;;5056195;28;20028;-15
2022/10/21 08:44:41;;;;;;;28.48;16.95;;;18.50;72.20;;;;;;5056133;28;20017;-14
2022/10/21 08:47:19;;;;;;;29.92;16.73;;;18.80;71.90;;;;;;5055861;28;20037;-17
2022/10/21 08:49:54;;;;;;;24.15;15.95;;;19.10;71.30;;;;;;5055680;28;20031;-15
2022/10/21 08:52:43;;;;;;;23.30;15.82;;;19.20;71.30;;;;;;5055802;28;20036;-15
2022/10/21 08:55:20;;;;;;;20.40;15.00;;;19.40;70.30;;;;;;5055071;28;20064;-16
2022/10/21 08:57:52;;;;;;;23.77;15.32;;;19.50;70.70;;;;;;5054333;28;20036;-14
2022/10/21 09:00:22;;;;;;;22.08;14.05;;;19.60;70.80;;;;;;5055764;28;20037;-14
2022/10/21 09:03:02;;;;;;;22.35;13.68;;;19.70;70.20;;;;;;5055493;28;20484;-14
2022/10/21 09:06:02;;;;;;;23.45;15.80;;;19.90;69.90;;;;;;5055710;28;20029;-15
2022/10/21 09:09:08;;;;;;;28.42;15.57;;;19.90;69.90;;;;;;5054576;28;20095;-14
2022/10/21 09:11:36;;;;;;;25.33;16.23;;;20.00;68.10;;;;;;5055943;28;20029;-14
2022/10/21 09:14:40;;;;;;;23.02;15.63;;;20.00;68.30;;;;;;5055531;28;20152;-14
2022/10/21 09:17:24;;;;;;;20.10;13.50;;;20.00;68.70;;;;;;5055138;28;20037;-14
2022/10/21 09:20:13;;;;;;;23.42;14.63;;;20.10;68.90;;;;;;5055381;28;20033;-16
2022/10/21 09:22:51;;;;;;;24.98;16.77;;;20.20;69.00;;;;;;5055311;28;20036;-15
2022/10/21 09:25:33;;;;;;;24.02;16.55;;;20.30;68.10;;;;;;5055394;28;20045;-15
2022/10/21 09:28:08;;;;;;;24.42;14.90;;;20.40;68.00;;;;;;5053710;28;20427;-16
2022/10/21 09:30:34;;;;;;;28.15;17.08;;;20.50;68.50;;;;;;5055218;28;20025;-15
2022/10/21 09:33:01;;;;;;;25.85;17.02;;;20.70;68.20;;;;;;5054805;28;20017;-16
2022/10/21 09:35:33;;;;;;;28.77;17.98;;;20.80;67.60;;;;;;5054777;28;20101;-15
2022/10/21 09:38:31;;;;;;;25.55;16.30;;;20.90;66.30;;;;;;5054442;28;20040;-14
2022/10/21 09:41:02;;;;;;;32.63;18.75;;;20.90;66.00;;;;;;5046961;28;20029;-15
2022/10/21 09:43:29;;;;;;;27.23;17.00;;;20.90;65.50;;;;;;5054688;28;20078;-14
2022/10/21 09:45:56;;;;;;;30.88;17.80;;;21.00;66.20;;;;;;5054918;28;20029;-14
2022/10/21 09:48:25;;;;;;;23.80;14.45;;;21.00;65.80;;;;;;5054827;28;20032;-14
2022/10/21 09:51:00;;;;;;;27.83;18.73;;;21.10;66.20;;;;;;5054403;28;20033;-15
2022/10/21 09:53:33;;;;;;;25.95;17.25;;;21.10;65.60;;;;;;5054614;28;20021;-14
2022/10/21 09:56:10;;;;;;;31.70;17.30;;;21.20;65.60;;;;;;5054780;28;20075;-14
2022/10/21 09:58:36;;;;;;;25.95;17.70;;;21.20;65.70;;;;;;5054483;28;20619;-14
2022/10/21 10:01:04;;;;;;;22.23;15.43;;;21.10;65.20;;;;;;5054097;28;20051;-15
2022/10/21 10:03:31;;;;;;;24.13;16.00;;;21.00;65.90;;;;;;5054251;28;20057;-15
2022/10/21 10:05:57;;;;;;;24.45;16.30;;;20.90;65.90;;;;;;5054454;28;20033;-14
2022/10/21 10:08:29;;;;;;;26.92;17.52;;;20.90;66.40;;;;;;5054100;28;20021;-15
2022/10/21 10:11:03;;;;;;;24.17;16.63;;;20.90;66.20;;;;;;5053897;28;20033;-13
2022/10/21 10:13:30;;;;;;;21.67;15.27;;;20.90;66.30;;;;;;5054642;28;20035;-17
2022/10/21 10:16:13;;;;;;;28.13;15.85;;;20.80;66.30;;;;;;5053993;28;20534;-15
2022/10/21 10:18:40;;;;;;;26.33;18.60;;;20.80;65.80;;;;;;5054151;28;20025;-14
2022/10/21 10:21:13;;;;;;;28.30;17.73;;;20.70;66.50;;;;;;5053652;28;20515;-14
2022/10/21 10:23:51;;;;;;;26.90;16.10;;;20.50;66.80;;;;;;5054072;28;20021;-14
2022/10/21 10:26:20;;;;;;;26.00;16.83;;;20.50;67.10;;;;;;5054216;28;20104;-14
2022/10/21 10:28:51;;;;;;;23.70;15.13;;;20.60;66.90;;;;;;5053771;28;20029;-15
2022/10/21 10:31:30;;;;;;;23.00;14.38;;;20.70;67.00;;;;;;5053713;28;20032;-14
2022/10/21 10:34:03;;;;;;;23.58;15.82;;;20.90;67.20;;;;;;5054024;28;20025;-14
2022/10/21 10:36:36;;;;;;;23.63;16.08;;;21.00;66.30;;;;;;5053320;28;20053;-14
2022/10/21 10:39:07;;;;;;;28.13;17.52;;;21.10;65.80;;;;;;5053570;28;20381;-15
2022/10/21 10:41:37;;;;;;;23.33;17.27;;;21.10;66.40;;;;;;5053509;28;20485;-15
2022/10/21 10:44:32;;;;;;;27.83;17.35;;;21.00;66.40;;;;;;5053735;28;20416;-14
2022/10/21 10:47:00;;;;;;;26.13;16.50;;;21.00;66.60;;;;;;5053211;28;20037;-14
2022/10/21 10:49:32;;;;;;;27.52;18.50;;;21.00;66.60;;;;;;5053337;28;20029;-14
2022/10/21 10:52:10;;;;;;;21.90;15.38;;;20.90;65.90;;;;;;5053692;28;20029;-14
2022/10/21 10:54:40;;;;;;;23.17;16.73;;;20.90;66.10;;;;;;5053193;28;20415;-14
2022/10/21 10:57:09;;;;;;;22.02;16.00;;;20.90;65.50;;;;;;5051823;28;20033;-14
2022/10/21 10:59:51;;;;;;;23.98;15.32;;;20.90;66.30;;;;;;5053296;28;20037;-14
2022/10/21 11:02:41;;;;;;;28.40;16.95;;;20.90;66.50;;;;;;5052412;28;20032;-14
2022/10/21 11:05:32;;;;;;;23.13;14.90;;;20.80;66.10;;;;;;5053072;28;20511;-14
2022/10/21 11:08:22;;;;;;;24.90;15.48;;;20.80;66.40;;;;;;5051882;28;20039;-14
2022/10/21 11:11:03;;;;;;;26.50;16.48;;;20.80;66.60;;;;;;5053718;28;20029;-14
2022/10/21 11:13:32;;;;;;;25.67;14.90;;;20.80;66.30;;;;;;5053547;28;20028;-14
2022/10/21 11:16:10;;;;;;;23.77;14.25;;;20.70;66.40;;;;;;5053055;28;20021;-16
2022/10/21 11:18:53;;;;;;;26.05;15.80;;;20.70;66.70;;;;;;5053023;28;20033;-15
2022/10/21 11:21:31;;;;;;;;;;;20.70;66.30;;;;;;5053441;28;20033;-14
2022/10/21 11:24:22;;;;;;;22.58;14.82;;;20.60;66.00;;;;;;5053151;28;19904;-14
2022/10/21 11:27:17;;;;;;;24.20;14.98;;;20.50;66.30;;;;;;5052800;28;20037;-14
2022/10/21 11:30:00;;;;;;;25.13;15.38;;;20.50;66.90;;;;;;5053281;28;20021;-14
2022/10/21 11:32:29;;;;;;;;;;;20.60;66.50;;;;;;5053329;28;20033;-14
2022/10/21 11:35:15;;;;;;;24.08;15.50;;;20.50;66.60;;;;;;5052779;28;19904;-16
2022/10/21 11:37:44;;;;;;;25.42;14.13;;;20.50;66.70;;;;;;5052686;28;20029;-14
2022/10/21 11:40:36;;;;;;;21.33;13.63;;;20.60;67.00;;;;;;5053123;28;20087;-15
2022/10/21 11:43:33;;;;;;;21.25;14.40;;;20.70;67.00;;;;;;5052636;28;20392;-15
2022/10/21 11:46:05;;;;;;;21.15;13.60;;;20.70;67.70;;;;;;5053352;28;20067;-14
2022/10/21 11:49:20;;;;;;;25.20;14.25;;;20.50;66.40;;;;;;5053075;28;20100;-16
2022/10/21 11:52:16;;;;;;;17.33;12.52;;;20.50;67.10;;;;;;5025676;28;20029;-14
2022/10/21 11:55:13;;;;;;;23.33;14.32;;;20.50;67.30;;;;;;5052942;28;20029;-15
2022/10/21 11:58:08;;;;;;;21.77;14.73;;;20.40;67.20;;;;;;5052933;28;20112;-14
2022/10/21 12:00:48;;;;;;;19.52;12.75;;;20.40;66.70;;;;;;5052739;28;20035;-14
2022/10/21 12:03:46;;;;;;;26.05;14.93;;;20.30;66.90;;;;;;5056567;28;20484;-14
2022/10/21 12:06:44;;;;;;;23.13;13.32;;;20.20;66.90;;;;;;5057412;28;20444;-14
2022/10/21 12:09:16;;;;;;;23.77;13.70;;;20.20;67.50;;;;;;5056522;28;20017;-16
2022/10/21 12:11:50;;;;;;;20.77;13.68;;;20.20;67.40;;;;;;5056302;28;20481;-15
2022/10/21 12:14:24;;;;;;;23.00;14.05;;;20.20;67.20;;;;;;5056725;28;20052;-15
2022/10/21 12:16:53;;;;;;;20.13;14.10;;;20.20;67.40;;;;;;5056271;28;20431;-17
2022/10/21 12:19:22;;;;;;;26.05;15.35;;;20.10;67.50;;;;;;5056539;28;20036;-15
2022/10/21 12:21:48;;;;;;;21.73;14.32;;;20.10;67.60;;;;;;5056204;28;20033;-16
2022/10/21 12:24:31;;;;;;;20.55;12.85;;;20.00;67.70;;;;;;5056049;28;20056;-14
2022/10/21 12:27:16;;;;;;;20.03;12.43;;;20.10;67.70;;;;;;5055967;28;20500;-15
2022/10/21 12:30:27;;;;;;;20.88;12.60;;;20.20;67.90;;;;;;5056077;28;20453;-15
2022/10/21 12:32:59;;;;;;;17.17;11.90;;;20.20;68.40;;;;;;5045548;28;20037;-15
2022/10/21 12:35:39;;;;;;;26.55;14.90;;;20.20;68.20;;;;;;5055546;28;20056;-13
2022/10/21 12:38:19;;;;;;;19.98;12.88;;;20.20;67.90;;;;;;5056317;28;20036;-16
2022/10/21 12:40:47;;;;;;;25.20;16.02;;;20.20;67.80;;;;;;5055933;28;20061;-14
2022/10/21 12:43:16;;;;;;;25.67;14.20;;;20.20;67.80;;;;;;5055653;28;20392;-16
2022/10/21 12:45:42;;;;;;;19.52;12.02;;;20.20;67.70;;;;;;5055789;28;20424;-14
2022/10/21 12:48:44;;;;;;;26.58;16.38;;;20.20;67.60;;;;;;5055978;28;20021;-15
2022/10/21 12:51:24;;;;;;;24.65;16.63;;;20.30;68.40;;;;;;5033429;28;20107;-15
2022/10/21 12:54:04;;;;;;;27.48;15.98;;;20.20;68.30;;;;;;5033959;28;20392;-14